sensor_id;sensor_type;location;lat;lon;timestamp;pressure;altitude;pressure_sealevel;temperature;humidity
44127;BME280;29786;50.798;7.302;2023-06-24T00:00:49;100080;;;19.18;100
44127;BME280;29786;50.798;7.302;2023-06-24T00:05:46;100070;;;19.14;100
44127;BME280;29786;50.798;7.302;2023-06-24T00:10:43;100080;;;19.21;100
44127;BME280;29786;50.798;7.302;2023-06-24T00:16:53;100070;;;19.04;100
44127;BME280;29786;50.798;7.302;2023-06-24T00:21:50;100080;;;18.83;100
44127;BME280;29786;50.798;7.302;2023-06-24T00:26:46;100080;;;18.57;100
44127;BME280;29786;50.798;7.302;2023-06-24T00:31:43;100070;;;18.46;100
44127;BME280;29786;50.798;7.302;2023-06-24T00:37:53;100070;;;18.33;100
44127;BME280;29786;50.798;7.302;2023-06-24T00:42:50;100080;;;18.49;100
44127;BME280;29786;50.798;7.302;2023-06-24T00:47:46;100060;;;18.62;100
44127;BME280;29786;50.798;7.302;2023-06-24T00:52:43;100080;;;18.57;100
44127;BME280;29786;50.798;7.302;2023-06-24T00:58:53;100080;;;18.45;100
44127;BME280;29786;50.798;7.302;2023-06-24T01:03:50;100080;;;18.36;100
44127;BME280;29786;50.798;7.302;2023-06-24T01:08:47;100060;;;17.95;100
44127;BME280;29786;50.798;7.302;2023-06-24T01:13:43;100080;;;17.92;100
44127;BME280;29786;50.798;7.302;2023-06-24T01:18:41;100070;;;17.79;100
44127;BME280;29786;50.798;7.302;2023-06-24T01:21:10;100070;;;17.77;100
44127;BME280;29786;50.798;7.302;2023-06-24T01:24:54;100080;;;17.77;100
44127;BME280;29786;50.798;7.302;2023-06-24T01:29:52;100050;;;17.73;100
44127;BME280;29786;50.798;7.302;2023-06-24T01:34:45;100070;;;17.83;100
44127;BME280;29786;50.798;7.302;2023-06-24T01:39:44;100070;;;17.81;100
44127;BME280;29786;50.798;7.302;2023-06-24T01:45:51;100070;;;17.92;100
44127;BME280;29786;50.798;7.302;2023-06-24T01:50:49;100070;;;18.02;100
44127;BME280;29786;50.798;7.302;2023-06-24T01:55:44;100070;;;18.08;100
44127;BME280;29786;50.798;7.302;2023-06-24T02:00:40;100070;;;17.93;100
44127;BME280;29786;50.798;7.302;2023-06-24T02:06:51;100070;;;17.65;100
44127;BME280;29786;50.798;7.302;2023-06-24T02:11:47;100070;;;17.64;100
44127;BME280;29786;50.798;7.302;2023-06-24T02:16:44;100060;;;17.52;100
44127;BME280;29786;50.798;7.302;2023-06-24T02:27:52;100060;;;17.5;100
44127;BME280;29786;50.798;7.302;2023-06-24T02:32:48;100070;;;17.48;100
44127;BME280;29786;50.798;7.302;2023-06-24T02:37:44;100070;;;17.45;100
44127;BME280;29786;50.798;7.302;2023-06-24T02:42:41;100070;;;17.43;100
44127;BME280;29786;50.798;7.302;2023-06-24T02:48:51;100070;;;17.41;100
44127;BME280;29786;50.798;7.302;2023-06-24T02:53:48;100070;;;17.33;100
44127;BME280;29786;50.798;7.302;2023-06-24T02:58:45;100070;;;17.34;100
44127;BME280;29786;50.798;7.302;2023-06-24T03:03:41;100070;;;17.35;100
44127;BME280;29786;50.798;7.302;2023-06-24T03:09:52;100070;;;17.34;100
44127;BME280;29786;50.798;7.302;2023-06-24T03:14:48;100070;;;17.26;100
44127;BME280;29786;50.798;7.302;2023-06-24T03:19:45;100080;;;17.33;100
44127;BME280;29786;50.798;7.302;2023-06-24T03:24:41;100080;;;17.17;100
44127;BME280;29786;50.798;7.302;2023-06-24T03:30:52;100080;;;17.14;100
44127;BME280;29786;50.798;7.302;2023-06-24T03:35:48;100080;;;17;100
44127;BME280;29786;50.798;7.302;2023-06-24T03:40:45;100080;;;17.07;100
44127;BME280;29786;50.798;7.302;2023-06-24T03:51:52;100080;;;16.91;100
44127;BME280;29786;50.798;7.302;2023-06-24T03:56:49;100080;;;17.06;100
44127;BME280;29786;50.798;7.302;2023-06-24T04:01:45;100070;;;17.16;100
44127;BME280;29786;50.798;7.302;2023-06-24T04:06:42;100080;;;17.2;100
44127;BME280;29786;50.798;7.302;2023-06-24T04:12:52;100080;;;17.15;100
44127;BME280;29786;50.798;7.302;2023-06-24T04:17:49;100080;;;17.11;100
44127;BME280;29786;50.798;7.302;2023-06-24T04:22:45;100090;;;17.1;100
44127;BME280;29786;50.798;7.302;2023-06-24T04:27:42;100090;;;17.16;100
44127;BME280;29786;50.798;7.302;2023-06-24T04:32:39;100100;;;17.04;100
44127;BME280;29786;50.798;7.302;2023-06-24T04:38:49;100100;;;17.24;100
44127;BME280;29786;50.798;7.302;2023-06-24T04:43:46;100100;;;17.1;100
44127;BME280;29786;50.798;7.302;2023-06-24T04:48:42;100110;;;17.29;100
44127;BME280;29786;50.798;7.302;2023-06-24T04:54:53;100110;;;17.75;100
44127;BME280;29786;50.798;7.302;2023-06-24T04:59:50;100110;;;17.85;100
44127;BME280;29786;50.798;7.302;2023-06-24T05:04:46;100110;;;18.01;100
44127;BME280;29786;50.798;7.302;2023-06-24T05:09:43;100110;;;18.19;100
44127;BME280;29786;50.798;7.302;2023-06-24T05:15:53;100110;;;18.18;100
44127;BME280;29786;50.798;7.302;2023-06-24T05:20:50;100100;;;18.15;100
44127;BME280;29786;50.798;7.302;2023-06-24T05:25:46;100110;;;18.18;100
44127;BME280;29786;50.798;7.302;2023-06-24T05:30:44;100110;;;18.51;100
44127;BME280;29786;50.798;7.302;2023-06-24T05:36:54;100110;;;18.49;100
44127;BME280;29786;50.798;7.302;2023-06-24T05:41:50;100120;;;18.69;100
44127;BME280;29786;50.798;7.302;2023-06-24T05:46:47;100110;;;18.37;100
44127;BME280;29786;50.798;7.302;2023-06-24T05:51:43;100120;;;18.33;100
44127;BME280;29786;50.798;7.302;2023-06-24T05:57:54;100120;;;18.71;100
44127;BME280;29786;50.798;7.302;2023-06-24T06:02:50;100120;;;19.45;100
44127;BME280;29786;50.798;7.302;2023-06-24T06:07:47;100110;;;19.53;100
44127;BME280;29786;50.798;7.302;2023-06-24T06:12:43;100130;;;19.7;100
44127;BME280;29786;50.798;7.302;2023-06-24T06:17:40;100130;;;19.56;100
44127;BME280;29786;50.798;7.302;2023-06-24T06:23:51;100130;;;20.07;100
44127;BME280;29786;50.798;7.302;2023-06-24T06:28:47;100140;;;20.2;100
44127;BME280;29786;50.798;7.302;2023-06-24T06:33:44;100130;;;20.35;100
44127;BME280;29786;50.798;7.302;2023-06-24T06:38:40;100140;;;20.55;100
44127;BME280;29786;50.798;7.302;2023-06-24T06:44:51;100130;;;20.75;100
44127;BME280;29786;50.798;7.302;2023-06-24T06:49:47;100130;;;20.88;100
44127;BME280;29786;50.798;7.302;2023-06-24T06:54:44;100130;;;21.33;99.79
44127;BME280;29786;50.798;7.302;2023-06-24T07:05:51;100140;;;21.81;94.23
44127;BME280;29786;50.798;7.302;2023-06-24T07:10:48;100140;;;21.69;93.98
44127;BME280;29786;50.798;7.302;2023-06-24T07:15:44;100150;;;21.55;96.96
44127;BME280;29786;50.798;7.302;2023-06-24T07:20:41;100150;;;21.97;97.23
44127;BME280;29786;50.798;7.302;2023-06-24T07:26:51;100150;;;22.11;96
44127;BME280;29786;50.798;7.302;2023-06-24T07:31:48;100150;;;21.78;94.97
44127;BME280;29786;50.798;7.302;2023-06-24T07:36:44;100150;;;22.11;97.27
44127;BME280;29786;50.798;7.302;2023-06-24T07:41:41;100150;;;22.46;92.75
44127;BME280;29786;50.798;7.302;2023-06-24T07:47:52;100160;;;22.37;96.55
44127;BME280;29786;50.798;7.302;2023-06-24T07:52:48;100150;;;22.73;95.16
44127;BME280;29786;50.798;7.302;2023-06-24T07:57:45;100150;;;22.9;90.62
44127;BME280;29786;50.798;7.302;2023-06-24T08:02:41;100150;;;23.04;89.94
44127;BME280;29786;50.798;7.302;2023-06-24T08:08:52;100150;;;23.49;88.8
44127;BME280;29786;50.798;7.302;2023-06-24T08:13:49;100150;;;23.83;83.36
44127;BME280;29786;50.798;7.302;2023-06-24T08:18:45;100150;;;23.67;83.95
44127;BME280;29786;50.798;7.302;2023-06-24T08:29:52;100140;;;24.43;82.53
44127;BME280;29786;50.798;7.302;2023-06-24T08:34:49;100140;;;24.73;77.83
44127;BME280;29786;50.798;7.302;2023-06-24T08:39:45;100130;;;24.66;77
44127;BME280;29786;50.798;7.302;2023-06-24T08:44:42;100140;;;24.51;75.99
44127;BME280;29786;50.798;7.302;2023-06-24T08:50:53;100130;;;24.6;77.16
44127;BME280;29786;50.798;7.302;2023-06-24T08:54:45;100140;;;24.49;76.03
44127;BME280;29786;50.798;7.302;2023-06-24T08:59:40;100130;;;24.23;75.93
44127;BME280;29786;50.798;7.302;2023-06-24T09:05:50;100140;;;24.48;72.98
44127;BME280;29786;50.798;7.302;2023-06-24T09:10:52;100120;;;24.1;75.6
44127;BME280;29786;50.798;7.302;2023-06-24T09:15:43;100130;;;25.05;71.51
44127;BME280;29786;50.798;7.302;2023-06-24T09:20:41;100130;;;24.82;70.45
44127;BME280;29786;50.798;7.302;2023-06-24T09:26:50;100120;;;25.5;66.62
44127;BME280;29786;50.798;7.302;2023-06-24T09:31:48;100100;;;25.52;65.76
44127;BME280;29786;50.798;7.302;2023-06-24T09:36:44;100110;;;25.77;64.98
44127;BME280;29786;50.798;7.302;2023-06-24T09:41:41;100100;;;26.04;64.41
44127;BME280;29786;50.798;7.302;2023-06-24T09:47:51;100090;;;26.19;61.49
44127;BME280;29786;50.798;7.302;2023-06-24T09:57:45;100080;;;26.9;58.54
44127;BME280;29786;50.798;7.302;2023-06-24T10:08:51;100080;;;27.1;55.74
44127;BME280;29786;50.798;7.302;2023-06-24T10:13:48;100070;;;27.44;53.43
44127;BME280;29786;50.798;7.302;2023-06-24T10:18:44;100070;;;27.35;53.6
44127;BME280;29786;50.798;7.302;2023-06-24T10:23:43;100070;;;27.89;53.54
44127;BME280;29786;50.798;7.302;2023-06-24T10:29:52;100050;;;28.19;52.03
44127;BME280;29786;50.798;7.302;2023-06-24T10:34:56;100050;;;28.56;50.1
44127;BME280;29786;50.798;7.302;2023-06-24T10:40:00;100050;;;28.25;54.76
44127;BME280;29786;50.798;7.302;2023-06-24T10:44:48;100040;;;28.01;53.14
44127;BME280;29786;50.798;7.302;2023-06-24T10:50:52;100030;;;28.02;52.78
44127;BME280;29786;50.798;7.302;2023-06-24T10:55:48;100030;;;28.63;53.27
44127;BME280;29786;50.798;7.302;2023-06-24T11:00:45;100020;;;28.72;53.98
44127;BME280;29786;50.798;7.302;2023-06-24T11:05:42;100010;;;27.65;52.62
44127;BME280;29786;50.798;7.302;2023-06-24T11:11:52;100010;;;28.24;48.72
44127;BME280;29786;50.798;7.302;2023-06-24T11:16:49;100000;;;28.5;49.19
44127;BME280;29786;50.798;7.302;2023-06-24T11:21:45;100000;;;28.35;48.86
44127;BME280;29786;50.798;7.302;2023-06-24T11:26:41;99990;;;28.49;48.74
44127;BME280;29786;50.798;7.302;2023-06-24T11:32:52;99990;;;28.5;49.61
44127;BME280;29786;50.798;7.302;2023-06-24T11:37:49;99980;;;28.93;48.18
44127;BME280;29786;50.798;7.302;2023-06-24T11:42:45;99980;;;29.14;44.42
44127;BME280;29786;50.798;7.302;2023-06-24T11:47:42;99970;;;29.53;48.29
44127;BME280;29786;50.798;7.302;2023-06-24T11:53:52;99970;;;28.26;48.22
44127;BME280;29786;50.798;7.302;2023-06-24T11:58:49;99970;;;28.89;45.21
44127;BME280;29786;50.798;7.302;2023-06-24T12:03:46;99950;;;29.31;46.41
44127;BME280;29786;50.798;7.302;2023-06-24T12:08:42;99950;;;29.17;45.36
44127;BME280;29786;50.798;7.302;2023-06-24T12:14:53;99940;;;30.95;41.6
44127;BME280;29786;50.798;7.302;2023-06-24T12:19:49;99940;;;31.98;38.65
44127;BME280;29786;50.798;7.302;2023-06-24T12:24:46;99930;;;32.83;40.16
44127;BME280;29786;50.798;7.302;2023-06-24T12:29:42;99930;;;33.02;37.5
44127;BME280;29786;50.798;7.302;2023-06-24T12:35:53;99920;;;33.47;38.13
44127;BME280;29786;50.798;7.302;2023-06-24T12:40:50;99910;;;34.59;35.26
44127;BME280;29786;50.798;7.302;2023-06-24T12:45:46;99910;;;34.49;35.05
44127;BME280;29786;50.798;7.302;2023-06-24T12:50:43;99910;;;34.13;35.8
44127;BME280;29786;50.798;7.302;2023-06-24T12:56:53;99910;;;33.96;34.92
44127;BME280;29786;50.798;7.302;2023-06-24T13:01:50;99910;;;33.23;35.34
44127;BME280;29786;50.798;7.302;2023-06-24T13:06:47;99900;;;32.61;37.23
44127;BME280;29786;50.798;7.302;2023-06-24T13:11:43;99900;;;35.41;33.64
44127;BME280;29786;50.798;7.302;2023-06-24T13:16:39;99900;;;34.24;34.78
44127;BME280;29786;50.798;7.302;2023-06-24T13:22:50;99890;;;34.15;34.99
44127;BME280;29786;50.798;7.302;2023-06-24T13:27:47;99870;;;34.18;34.72
44127;BME280;29786;50.798;7.302;2023-06-24T13:32:43;99880;;;35.25;33.34
44127;BME280;29786;50.798;7.302;2023-06-24T13:38:54;99880;;;35.15;33.71
44127;BME280;29786;50.798;7.302;2023-06-24T13:43:50;99870;;;35.68;35.1
44127;BME280;29786;50.798;7.302;2023-06-24T13:48:47;99850;;;37.22;30.74
44127;BME280;29786;50.798;7.302;2023-06-24T13:53:43;99860;;;35.82;31.15
44127;BME280;29786;50.798;7.302;2023-06-24T13:58:40;99870;;;35.87;31.49
44127;BME280;29786;50.798;7.302;2023-06-24T14:04:51;99860;;;36.66;30.4
44127;BME280;29786;50.798;7.302;2023-06-24T14:09:47;99840;;;36.78;30.87
44127;BME280;29786;50.798;7.302;2023-06-24T14:14:44;99850;;;36.48;31.45
44127;BME280;29786;50.798;7.302;2023-06-24T14:20:54;99850;;;36.24;30.8
44127;BME280;29786;50.798;7.302;2023-06-24T14:25:51;99840;;;35.25;30.83
44127;BME280;29786;50.798;7.302;2023-06-24T14:35:44;99830;;;37.41;30.27
44127;BME280;29786;50.798;7.302;2023-06-24T14:40:40;99830;;;35.84;31.2
44127;BME280;29786;50.798;7.302;2023-06-24T14:46:51;99820;;;40.08;25.69
44127;BME280;29786;50.798;7.302;2023-06-24T14:51:48;99820;;;40.25;26.47
44127;BME280;29786;50.798;7.302;2023-06-24T14:56:44;99810;;;38.74;26.34
44127;BME280;29786;50.798;7.302;2023-06-24T15:01:41;99810;;;34.38;31.33
44127;BME280;29786;50.798;7.302;2023-06-24T15:07:51;99810;;;34;33.18
44127;BME280;29786;50.798;7.302;2023-06-24T15:12:48;99800;;;38.11;28.57
44127;BME280;29786;50.798;7.302;2023-06-24T15:17:44;99800;;;37.91;27.01
44127;BME280;29786;50.798;7.302;2023-06-24T15:22:41;99790;;;39.68;26.08
44127;BME280;29786;50.798;7.302;2023-06-24T15:28:52;99790;;;39.32;26.65
44127;BME280;29786;50.798;7.302;2023-06-24T15:33:48;99790;;;35.49;30.25
44127;BME280;29786;50.798;7.302;2023-06-24T15:38:45;99790;;;38.66;27.08
44127;BME280;29786;50.798;7.302;2023-06-24T15:43:41;99780;;;40.56;26.4
44127;BME280;29786;50.798;7.302;2023-06-24T15:49:52;99770;;;39;26.4
44127;BME280;29786;50.798;7.302;2023-06-24T15:54:49;99770;;;39.91;24.64
44127;BME280;29786;50.798;7.302;2023-06-24T15:59:45;99760;;;38.9;25.27
44127;BME280;29786;50.798;7.302;2023-06-24T16:04:42;99750;;;39.64;24.76
44127;BME280;29786;50.798;7.302;2023-06-24T16:10:52;99750;;;39;24.85
44127;BME280;29786;50.798;7.302;2023-06-24T16:15:49;99740;;;39.36;24.49
44127;BME280;29786;50.798;7.302;2023-06-24T16:20:45;99750;;;38.24;25.62
44127;BME280;29786;50.798;7.302;2023-06-24T16:25:42;99740;;;38.55;25.75
44127;BME280;29786;50.798;7.302;2023-06-24T16:31:52;99740;;;39.91;25.22
44127;BME280;29786;50.798;7.302;2023-06-24T16:36:49;99740;;;39;25.91
44127;BME280;29786;50.798;7.302;2023-06-24T16:41:46;99740;;;40.82;24.36
44127;BME280;29786;50.798;7.302;2023-06-24T16:46:42;99750;;;40.96;23.58
44127;BME280;29786;50.798;7.302;2023-06-24T16:52:53;99750;;;40.7;24.93
44127;BME280;29786;50.798;7.302;2023-06-24T16:57:49;99750;;;40.71;24.26
44127;BME280;29786;50.798;7.302;2023-06-24T17:02:46;99740;;;38.28;26.07
44127;BME280;29786;50.798;7.302;2023-06-24T17:07:43;99740;;;38.65;26.68
44127;BME280;29786;50.798;7.302;2023-06-24T17:12:47;99730;;;37.32;26.94
44127;BME280;29786;50.798;7.302;2023-06-24T17:17:44;99740;;;38.28;26.46
44127;BME280;29786;50.798;7.302;2023-06-24T17:22:40;99740;;;37.75;26.39
44127;BME280;29786;50.798;7.302;2023-06-24T17:28:51;99730;;;38;26.98
44127;BME280;29786;50.798;7.302;2023-06-24T17:38:44;99720;;;38.11;26.75
44127;BME280;29786;50.798;7.302;2023-06-24T17:43:40;99720;;;37.72;27.13
44127;BME280;29786;50.798;7.302;2023-06-24T17:49:51;99730;;;37;27.31
44127;BME280;29786;50.798;7.302;2023-06-24T17:54:48;99730;;;34.41;30.29
44127;BME280;29786;50.798;7.302;2023-06-24T17:59:44;99730;;;30.87;35.74
44127;BME280;29786;50.798;7.302;2023-06-24T18:10:51;99740;;;31.84;34.54
44127;BME280;29786;50.798;7.302;2023-06-24T18:15:48;99730;;;34.63;30.91
44127;BME280;29786;50.798;7.302;2023-06-24T18:20:44;99730;;;33.66;32.39
44127;BME280;29786;50.798;7.302;2023-06-24T18:25:41;99720;;;31.86;35.16
44127;BME280;29786;50.798;7.302;2023-06-24T18:31:52;99720;;;30.27;38.81
44127;BME280;29786;50.798;7.302;2023-06-24T18:36:48;99720;;;28.83;39.8
44127;BME280;29786;50.798;7.302;2023-06-24T18:41:45;99730;;;27.84;42.67
44127;BME280;29786;50.798;7.302;2023-06-24T18:46:41;99720;;;27.63;43.7
44127;BME280;29786;50.798;7.302;2023-06-24T18:52:52;99710;;;27.4;45.42
44127;BME280;29786;50.798;7.302;2023-06-24T18:57:48;99710;;;27.05;44.52
44127;BME280;29786;50.798;7.302;2023-06-24T19:02:45;99710;;;26.63;45.88
44127;BME280;29786;50.798;7.302;2023-06-24T19:07:41;99710;;;26.88;46.2
44127;BME280;29786;50.798;7.302;2023-06-24T19:13:52;99710;;;27.22;45.71
44127;BME280;29786;50.798;7.302;2023-06-24T19:18:49;99710;;;27.04;45.51
44127;BME280;29786;50.798;7.302;2023-06-24T19:23:45;99710;;;26.7;45.46
44127;BME280;29786;50.798;7.302;2023-06-24T19:34:53;99710;;;26.23;45.99
44127;BME280;29786;50.798;7.302;2023-06-24T19:39:49;99720;;;26.09;46.44
44127;BME280;29786;50.798;7.302;2023-06-24T19:44:46;99720;;;25.85;46
44127;BME280;29786;50.798;7.302;2023-06-24T19:49:50;99730;;;25.77;45.95
44127;BME280;29786;50.798;7.302;2023-06-24T19:55:53;99730;;;25.62;46.37
44127;BME280;29786;50.798;7.302;2023-06-24T20:00:49;99730;;;25.37;46.55
44127;BME280;29786;50.798;7.302;2023-06-24T20:05:46;99730;;;25.25;46.33
44127;BME280;29786;50.798;7.302;2023-06-24T20:10:42;99720;;;24.83;45.64
44127;BME280;29786;50.798;7.302;2023-06-24T20:16:53;99720;;;24.71;46.77
44127;BME280;29786;50.798;7.302;2023-06-24T20:21:50;99720;;;24.73;47.01
44127;BME280;29786;50.798;7.302;2023-06-24T20:26:46;99720;;;24.74;46.79
44127;BME280;29786;50.798;7.302;2023-06-24T20:31:43;99720;;;24.72;47.42
44127;BME280;29786;50.798;7.302;2023-06-24T20:32:57;99720;;;24.75;48.29
44127;BME280;29786;50.798;7.302;2023-06-24T20:37:53;99720;;;24.54;49.54
44127;BME280;29786;50.798;7.302;2023-06-24T20:42:50;99720;;;24.31;48.67
44127;BME280;29786;50.798;7.302;2023-06-24T20:47:46;99720;;;24.37;49.32
44127;BME280;29786;50.798;7.302;2023-06-24T20:52:43;99710;;;24.23;49.09
44127;BME280;29786;50.798;7.302;2023-06-24T20:58:54;99720;;;24.07;49.18
44127;BME280;29786;50.798;7.302;2023-06-24T21:03:50;99710;;;23.85;48.28
44127;BME280;29786;50.798;7.302;2023-06-24T21:08:47;99690;;;23.54;47.78
44127;BME280;29786;50.798;7.302;2023-06-24T21:13:43;99700;;;23.58;49.06
44127;BME280;29786;50.798;7.302;2023-06-24T21:19:54;99700;;;23.48;50.26
44127;BME280;29786;50.798;7.302;2023-06-24T21:24:50;99700;;;23.33;51.16
44127;BME280;29786;50.798;7.302;2023-06-24T21:29:47;99680;;;23.17;51.31
44127;BME280;29786;50.798;7.302;2023-06-24T21:34:43;99700;;;22.64;57.19
44127;BME280;29786;50.798;7.302;2023-06-24T21:40:54;99700;;;22.63;60.15
44127;BME280;29786;50.798;7.302;2023-06-24T21:45:51;99700;;;22.48;60.46
44127;BME280;29786;50.798;7.302;2023-06-24T21:50:47;99680;;;22.14;61.63
44127;BME280;29786;50.798;7.302;2023-06-24T21:55:44;99700;;;22.13;61.11
44127;BME280;29786;50.798;7.302;2023-06-24T22:00:40;99690;;;22.32;60.18
44127;BME280;29786;50.798;7.302;2023-06-24T22:06:51;99690;;;22.21;60.85
44127;BME280;29786;50.798;7.302;2023-06-24T22:11:47;99690;;;21.98;62.41
44127;BME280;29786;50.798;7.302;2023-06-24T22:16:44;99690;;;21.83;61.79
44127;BME280;29786;50.798;7.302;2023-06-24T22:21:40;99690;;;21.77;60.65
44127;BME280;29786;50.798;7.302;2023-06-24T22:27:51;99690;;;21.76;60.92
44127;BME280;29786;50.798;7.302;2023-06-24T22:32:48;99690;;;21.82;60.11
44127;BME280;29786;50.798;7.302;2023-06-24T22:37:44;99690;;;21.59;60.95
44127;BME280;29786;50.798;7.302;2023-06-24T22:48:51;99690;;;21.62;60.71
44127;BME280;29786;50.798;7.302;2023-06-24T22:53:48;99700;;;21.54;61.99
44127;BME280;29786;50.798;7.302;2023-06-24T22:58:44;99690;;;21.57;60.75
44127;BME280;29786;50.798;7.302;2023-06-24T23:03:41;99690;;;21.38;62.37
44127;BME280;29786;50.798;7.302;2023-06-24T23:09:52;99690;;;21.41;62.9
44127;BME280;29786;50.798;7.302;2023-06-24T23:14:48;99690;;;21.28;64.49
44127;BME280;29786;50.798;7.302;2023-06-24T23:19:45;99690;;;21.27;65.35
44127;BME280;29786;50.798;7.302;2023-06-24T23:24:42;99690;;;21.48;65.07
44127;BME280;29786;50.798;7.302;2023-06-24T23:30:52;99680;;;21.16;67.08
44127;BME280;29786;50.798;7.302;2023-06-24T23:35:49;99680;;;21.13;68.26
44127;BME280;29786;50.798;7.302;2023-06-24T23:40:45;99680;;;21.25;68.04
44127;BME280;29786;50.798;7.302;2023-06-24T23:45:46;99670;;;21.19;69
44127;BME280;29786;50.798;7.302;2023-06-24T23:56:49;99670;;;21.04;70.76
